Time;durP1;ratioP1;P1;durP2;ratioP2;P2;SDS_P1;SDS_P2;PMS_P1;PMS_P2;Temp;Humidity;BMP_temperature;BMP_pressure;BME280_temperature;BME280_humidity;BME280_pressure;Samples;Min_cycle;Max_cycle;Signal;HPM_P1;HPM_P2
2022/06/06 00:00:49;;;;;;;8.48;7.15;;;18.50;99.90;;;;;;5036371;28;20318;-66
2022/06/06 00:03:37;;;;;;;8.00;7.20;;;18.40;99.90;;;;;;5030138;28;20723;-71
2022/06/06 00:06:26;;;;;;;8.40;7.15;;;18.40;99.90;;;;;;5038891;28;20237;-72
2022/06/06 00:09:16;;;;;;;8.25;7.43;;;18.40;99.90;;;;;;5040055;28;20244;-73
2022/06/06 00:12:06;;;;;;;8.60;7.70;;;18.50;99.90;;;;;;5009392;28;20308;-71
2022/06/06 00:14:56;;;;;;;8.43;7.63;;;18.50;99.90;;;;;;5030806;28;20227;-70
2022/06/06 00:17:45;;;;;;;8.30;7.50;;;18.40;99.90;;;;;;5025528;28;20704;-70
2022/06/06 00:20:35;;;;;;;9.13;8.15;;;18.40;99.90;;;;;;5024634;28;20228;-71
2022/06/06 00:23:24;;;;;;;9.57;8.07;;;18.40;99.90;;;;;;5041914;28;20224;-69
2022/06/06 00:26:15;;;;;;;10.38;8.35;;;18.30;99.90;;;;;;5045686;28;20224;-70
2022/06/06 00:29:05;;;;;;;9.15;8.25;;;18.30;99.90;;;;;;5051662;28;20305;-68
2022/06/06 00:35:03;;;;;;;11.10;8.48;;;18.40;99.90;;;;;;5025109;28;20320;-71
2022/06/06 00:37:52;;;;;;;9.40;8.40;;;18.00;99.90;;;;;;5052979;28;20697;-70
2022/06/06 00:40:40;;;;;;;14.07;8.55;;;18.10;99.90;;;;;;5041059;28;20306;-71
2022/06/06 00:43:29;;;;;;;9.77;8.77;;;18.10;99.90;;;;;;5039908;28;20217;-69
2022/06/06 00:46:18;;;;;;;10.20;8.70;;;17.90;99.90;;;;;;5039620;28;20240;-70
2022/06/06 00:49:15;;;;;;;12.77;8.88;;;17.80;99.90;;;;;;5034625;28;20220;-71
2022/06/06 00:52:12;;;;;;;11.02;9.13;;;17.80;99.90;;;;;;5032856;28;20230;-72
2022/06/06 00:55:05;;;;;;;10.75;8.88;;;17.90;99.90;;;;;;5038604;28;20217;-70
2022/06/06 00:57:57;;;;;;;12.43;8.90;;;17.80;99.90;;;;;;5049405;28;20233;-71
2022/06/06 01:00:52;;;;;;;13.50;9.18;;;17.90;99.90;;;;;;5044664;28;20499;-71
2022/06/06 01:03:41;;;;;;;11.27;9.40;;;17.90;99.90;;;;;;5039885;28;20228;-72
2022/06/06 01:06:35;;;;;;;10.20;9.18;;;17.80;99.90;;;;;;5027907;28;20745;-71
2022/06/06 01:09:26;;;;;;;10.63;9.52;;;17.80;99.90;;;;;;5042267;28;20221;-72
2022/06/06 01:12:18;;;;;;;10.63;9.50;;;17.70;99.90;;;;;;5042898;28;20235;-71
2022/06/06 01:15:10;;;;;;;12.20;8.93;;;17.70;99.90;;;;;;5042711;28;20239;-71
2022/06/06 01:18:06;;;;;;;10.18;8.95;;;17.80;99.90;;;;;;5056268;28;20233;-71
2022/06/06 01:21:22;;;;;;;11.85;9.02;;;17.70;99.90;;;;;;5054182;28;20298;-72
2022/06/06 01:24:30;;;;;;;11.10;9.50;;;17.70;99.90;;;;;;5036160;28;20707;-71
2022/06/06 01:27:33;;;;;;;9.90;8.95;;;17.60;99.90;;;;;;5040459;28;21011;-70
2022/06/06 01:30:28;;;;;;;10.07;8.93;;;17.60;99.90;;;;;;5051838;28;20229;-70
2022/06/06 01:33:16;;;;;;;11.18;9.73;;;17.70;99.90;;;;;;5042228;28;20560;-71
2022/06/06 01:36:05;;;;;;;11.73;9.20;;;17.70;99.90;;;;;;5031159;28;20216;-72
2022/06/06 01:38:55;;;;;;;10.48;9.38;;;17.70;99.90;;;;;;5041785;28;20271;-69
2022/06/06 01:41:52;;;;;;;10.57;9.15;;;17.50;99.90;;;;;;5036130;28;20224;-68
2022/06/06 01:44:48;;;;;;;10.45;9.35;;;17.50;99.90;;;;;;5041440;28;20243;-72
2022/06/06 01:47:42;;;;;;;10.18;9.18;;;17.30;99.90;;;;;;5042861;28;20228;-72
2022/06/06 01:50:32;;;;;;;10.63;9.18;;;17.30;99.90;;;;;;5029347;28;20228;-72
2022/06/06 01:53:23;;;;;;;10.00;8.82;;;17.30;99.90;;;;;;5043114;28;20762;-70
2022/06/06 01:56:16;;;;;;;10.15;9.15;;;17.40;99.90;;;;;;5034818;28;20228;-72
2022/06/06 01:59:05;;;;;;;11.75;8.93;;;17.40;99.90;;;;;;5043550;28;20227;-72
2022/06/06 02:01:54;;;;;;;9.88;8.90;;;17.40;99.90;;;;;;5041200;28;20442;-70
2022/06/06 02:04:47;;;;;;;10.60;9.57;;;17.20;99.90;;;;;;5029585;28;20239;-72
2022/06/06 02:07:36;;;;;;;9.82;8.82;;;17.10;99.90;;;;;;5022902;28;20209;-71
2022/06/06 02:10:25;;;;;;;10.35;9.25;;;17.10;99.90;;;;;;5038521;28;20258;-71
2022/06/06 02:13:14;;;;;;;11.15;9.45;;;17.00;99.90;;;;;;5036501;28;20220;-71
2022/06/06 02:16:04;;;;;;;11.25;9.75;;;16.80;99.90;;;;;;5023339;28;20226;-72
2022/06/06 02:18:52;;;;;;;10.98;9.80;;;16.90;99.90;;;;;;5040550;28;20889;-69
2022/06/06 02:21:42;;;;;;;13.40;9.80;;;17.00;99.90;;;;;;5037956;28;20221;-71
2022/06/06 02:24:31;;;;;;;10.68;9.57;;;16.80;99.90;;;;;;5023645;28;20221;-71
2022/06/06 02:27:20;;;;;;;10.68;9.57;;;16.80;99.90;;;;;;5035026;28;20703;-68
2022/06/06 02:30:12;;;;;;;11.27;9.60;;;16.90;99.90;;;;;;5041152;28;20224;-71
2022/06/06 02:33:01;;;;;;;11.15;10.02;;;16.80;99.90;;;;;;5048513;28;20215;-71
2022/06/06 02:35:50;;;;;;;14.05;9.70;;;16.60;99.90;;;;;;5043483;28;20212;-71
2022/06/06 02:38:40;;;;;;;10.05;9.02;;;16.70;99.90;;;;;;5030807;28;20766;-71
2022/06/06 02:41:28;;;;;;;11.00;9.48;;;16.60;99.90;;;;;;5038792;28;20212;-72
2022/06/06 02:44:17;;;;;;;13.30;9.73;;;16.50;99.90;;;;;;5051287;28;20228;-71
2022/06/06 02:47:06;;;;;;;12.90;9.93;;;16.50;99.90;;;;;;5041617;28;20229;-71
2022/06/06 02:49:57;;;;;;;11.50;9.48;;;16.40;99.90;;;;;;5022149;28;20232;-71
2022/06/06 02:52:46;;;;;;;12.32;9.65;;;16.40;99.90;;;;;;5030806;28;20229;-70
2022/06/06 02:55:36;;;;;;;11.65;9.60;;;16.60;99.90;;;;;;5020242;28;20209;-71
2022/06/06 02:58:30;;;;;;;12.35;9.20;;;16.60;99.90;;;;;;5031038;28;20221;-71
2022/06/06 03:01:19;;;;;;;11.68;10.07;;;16.50;99.90;;;;;;5016223;28;20252;-72
2022/06/06 03:04:07;;;;;;;13.82;9.90;;;16.50;99.90;;;;;;5020043;28;20226;-72
2022/06/06 03:07:05;;;;;;;12.50;9.65;;;16.60;99.90;;;;;;5037298;28;20323;-71
2022/06/06 03:10:07;;;;;;;10.90;9.65;;;16.60;99.90;;;;;;5042181;28;20228;-70
2022/06/06 03:13:10;;;;;;;12.02;10.20;;;16.90;99.90;;;;;;5014911;28;20233;-71
2022/06/06 03:23:14;;;;;;;12.43;10.10;;;16.90;99.90;;;;;;5036197;28;20256;-70
2022/06/06 03:26:10;;;;;;;12.13;10.25;;;17.10;99.90;;;;;;5043456;28;20228;-71
2022/06/06 03:29:15;;;;;;;13.50;9.55;;;17.10;99.90;;;;;;5014326;28;20229;-68
2022/06/06 03:32:11;;;;;;;12.30;9.80;;;17.00;99.90;;;;;;5036431;28;20860;-70
2022/06/06 03:35:07;;;;;;;13.38;10.00;;;17.00;99.90;;;;;;5024289;28;20228;-72
2022/06/06 03:38:01;;;;;;;11.85;9.75;;;17.10;99.90;;;;;;5040453;28;20227;-72
2022/06/06 03:41:06;;;;;;;10.52;9.23;;;17.20;99.90;;;;;;5027496;28;20787;-72
2022/06/06 03:44:01;;;;;;;10.60;9.35;;;17.20;99.90;;;;;;5049826;28;20256;-71
2022/06/06 03:46:59;;;;;;;11.52;9.82;;;17.30;99.90;;;;;;5036888;28;20245;-72
2022/06/06 03:49:59;;;;;;;12.43;9.43;;;17.20;99.90;;;;;;5028625;28;20302;-70
2022/06/06 03:52:51;;;;;;;13.38;10.23;;;17.40;99.90;;;;;;5039120;28;20245;-72
2022/06/06 03:55:51;;;;;;;11.32;9.35;;;17.30;99.90;;;;;;5038944;28;20902;-71
2022/06/06 03:58:41;;;;;;;10.15;9.15;;;17.40;99.90;;;;;;5053985;28;20665;-70
2022/06/06 04:01:33;;;;;;;10.02;9.10;;;17.50;99.90;;;;;;5034103;28;20247;-70
2022/06/06 04:04:28;;;;;;;10.00;9.00;;;17.50;99.90;;;;;;5023412;28;20232;-72
2022/06/06 04:07:17;;;;;;;10.23;9.23;;;17.60;99.90;;;;;;5034342;28;20220;-70
2022/06/06 04:10:06;;;;;;;9.85;8.95;;;17.70;99.90;;;;;;5038888;28;20216;-71
2022/06/06 04:13:08;;;;;;;12.10;9.10;;;17.80;99.90;;;;;;5028726;28;20228;-69
2022/06/06 04:16:01;;;;;;;10.38;9.27;;;17.80;99.90;;;;;;5039800;28;21081;-72
2022/06/06 04:18:59;;;;;;;10.07;8.75;;;17.90;99.90;;;;;;5024558;28;20228;-70
2022/06/06 04:21:59;;;;;;;12.15;9.55;;;17.90;99.90;;;;;;5050817;28;20232;-71
2022/06/06 04:25:02;;;;;;;12.00;9.35;;;17.80;99.90;;;;;;5040450;28;20239;-71
2022/06/06 04:27:59;;;;;;;14.02;8.93;;;18.00;99.90;;;;;;5020797;28;20229;-72
2022/06/06 04:31:01;;;;;;;11.25;9.07;;;18.10;99.90;;;;;;5041551;28;20233;-70
2022/06/06 04:33:57;;;;;;;11.15;8.77;;;18.30;99.90;;;;;;5043085;28;20224;-71
2022/06/06 04:36:53;;;;;;;10.75;8.75;;;18.40;99.90;;;;;;5041110;28;20653;-70
2022/06/06 04:39:51;;;;;;;11.75;8.55;;;18.50;99.90;;;;;;5031489;28;20292;-71
2022/06/06 04:42:46;;;;;;;10.07;9.02;;;18.60;99.90;;;;;;5036431;28;20220;-70
2022/06/06 04:45:40;;;;;;;11.63;8.98;;;18.60;99.90;;;;;;5037774;28;20237;-70
2022/06/06 04:48:30;;;;;;;13.63;9.10;;;18.60;99.90;;;;;;5039484;28;20933;-72
2022/06/06 04:51:20;;;;;;;10.57;9.05;;;18.80;99.90;;;;;;5039699;28;20227;-70
2022/06/06 04:54:14;;;;;;;15.85;9.32;;;18.90;99.90;;;;;;5041984;28;20378;-70
2022/06/06 04:57:05;;;;;;;9.68;8.68;;;19.00;99.90;;;;;;5026590;28;20227;-71
2022/06/06 04:59:57;;;;;;;9.95;8.35;;;19.10;99.90;;;;;;5039175;28;20221;-70
2022/06/06 05:02:45;;;;;;;11.70;8.50;;;19.10;99.90;;;;;;5037703;28;20742;-71
2022/06/06 05:05:41;;;;;;;10.00;8.88;;;19.20;99.90;;;;;;5041662;28;20221;-71
2022/06/06 05:08:58;;;;;;;12.55;9.27;;;19.30;99.90;;;;;;5037837;28;20236;-71
2022/06/06 05:12:04;;;;;;;11.18;10.07;;;19.30;99.90;;;;;;5039727;28;20844;-71
2022/06/06 05:15:18;;;;;;;12.50;10.90;;;19.20;99.90;;;;;;5036582;28;20229;-73
2022/06/06 05:18:22;;;;;;;13.55;12.07;;;19.30;99.90;;;;;;5038542;28;20231;-71
2022/06/06 05:21:21;;;;;;;13.40;12.00;;;19.40;99.90;;;;;;5053525;28;21018;-68
2022/06/06 05:24:31;;;;;;;14.18;12.18;;;19.50;99.90;;;;;;5038059;28;20382;-71
2022/06/06 05:27:40;;;;;;;14.45;12.95;;;19.70;99.90;;;;;;5021471;28;20569;-71
2022/06/06 05:30:37;;;;;;;16.17;11.77;;;19.90;99.90;;;;;;5006516;28;20222;-71
2022/06/06 05:33:33;;;;;;;12.52;11.30;;;20.00;99.90;;;;;;5039031;28;20303;-70
2022/06/06 05:36:35;;;;;;;12.35;11.10;;;20.10;99.90;;;;;;5042808;28;20228;-69
2022/06/06 05:39:43;;;;;;;15.25;11.63;;;20.20;99.90;;;;;;5017894;28;20222;-71
2022/06/06 05:42:50;;;;;;;11.68;10.43;;;20.20;99.90;;;;;;5014310;28;20222;-71
2022/06/06 05:45:49;;;;;;;15.52;10.13;;;20.30;99.90;;;;;;5019185;28;20216;-70
2022/06/06 05:48:55;;;;;;;14.32;9.52;;;20.40;99.90;;;;;;5018701;28;20218;-71
2022/06/06 05:51:54;;;;;;;14.70;9.20;;;20.60;99.90;;;;;;5015596;28;20232;-71
2022/06/06 05:55:00;;;;;;;39.22;10.38;;;20.60;99.90;;;;;;5043271;28;20228;-71
2022/06/06 05:58:18;;;;;;;9.20;8.25;;;20.60;99.90;;;;;;5037376;28;20757;-72
2022/06/06 06:01:24;;;;;;;10.50;8.27;;;20.70;99.90;;;;;;5042453;28;20228;-73
2022/06/06 06:04:41;;;;;;;8.85;7.95;;;20.80;99.90;;;;;;5038613;28;20315;-73
2022/06/06 06:07:39;;;;;;;10.48;7.93;;;21.00;99.90;;;;;;5035746;28;20225;-72
2022/06/06 06:10:37;;;;;;;9.52;8.52;;;21.20;99.90;;;;;;5044374;28;20233;-72
2022/06/06 06:13:47;;;;;;;11.55;8.38;;;21.20;99.90;;;;;;5044140;28;20217;-72
2022/06/06 06:16:42;;;;;;;9.40;8.20;;;21.40;99.90;;;;;;5041337;28;20213;-72
2022/06/06 06:19:36;;;;;;;11.00;8.30;;;21.80;99.90;;;;;;5041987;28;20224;-72
2022/06/06 06:22:32;;;;;;;12.40;9.50;;;22.60;99.90;;;;;;5031402;28;20217;-71
2022/06/06 06:25:22;;;;;;;11.07;9.50;;;22.50;99.90;;;;;;5039914;28;20221;-71
2022/06/06 06:28:13;;;;;;;11.02;8.93;;;22.10;99.90;;;;;;5035952;28;20275;-76
2022/06/06 06:31:14;;;;;;;15.10;10.02;;;22.30;99.90;;;;;;5039607;28;20638;-76
2022/06/06 06:34:21;;;;;;;13.07;10.60;;;22.30;99.90;;;;;;5045044;28;20250;-77
2022/06/06 06:37:27;;;;;;;10.60;9.52;;;22.20;99.90;;;;;;5040655;28;20255;-73
2022/06/06 06:40:26;;;;;;;12.68;10.07;;;22.20;99.90;;;;;;5040875;28;20945;-73
2022/06/06 06:43:24;;;;;;;12.07;9.55;;;22.50;99.90;;;;;;5041274;28;20228;-73
2022/06/06 06:46:19;;;;;;;10.35;9.30;;;22.50;99.70;;;;;;5043599;28;20219;-72
2022/06/06 08:16:45;;;;;;;4.90;4.50;;;33.00;55.40;;;;;;5048764;27;20533;-76
2022/06/06 08:19:51;;;;;;;5.00;4.50;;;33.60;55.50;;;;;;5052534;28;20578;-76
2022/06/06 08:22:42;;;;;;;5.65;4.30;;;33.70;53.40;;;;;;5031607;28;20238;-73
2022/06/06 08:25:35;;;;;;;4.28;3.90;;;34.90;52.70;;;;;;5052413;28;20226;-74
2022/06/06 08:28:26;;;;;;;5.20;3.60;;;34.30;51.50;;;;;;5053801;28;20736;-74
2022/06/06 08:31:14;;;;;;;3.63;3.20;;;35.20;50.40;;;;;;5044864;28;20224;-74
2022/06/06 08:34:04;;;;;;;3.70;3.40;;;35.60;49.20;;;;;;5035428;28;20281;-75
2022/06/06 08:37:08;;;;;;;4.40;4.00;;;35.50;49.00;;;;;;5034742;28;20220;-75
2022/06/06 08:40:14;;;;;;;4.13;3.70;;;35.30;48.90;;;;;;5034870;28;20216;-75
2022/06/06 08:43:04;;;;;;;4.45;3.80;;;35.70;49.30;;;;;;5035919;28;20224;-75
2022/06/06 08:46:03;;;;;;;3.42;3.22;;;36.20;48.50;;;;;;5055437;28;20877;-75
2022/06/06 08:50:44;;;;;;;4.07;3.53;;;35.20;47.30;;;;;;5053133;28;20345;-75
2022/06/06 08:52:45;;;;;;;3.47;3.17;;;35.60;47.60;;;;;;5034288;28;20355;-75
2022/06/06 08:56:09;;;;;;;4.15;3.30;;;36.60;46.70;;;;;;5051731;28;20231;-75
2022/06/06 08:59:39;;;;;;;4.15;3.58;;;35.80;46.20;;;;;;5042023;28;20230;-75
2022/06/06 09:03:12;;;;;;;5.55;3.80;;;35.50;48.30;;;;;;5031222;28;20228;-75
2022/06/06 09:06:40;;;;;;;5.03;3.35;;;36.30;45.00;;;;;;5043385;28;20228;-75
2022/06/06 09:10:17;;;;;;;5.30;3.47;;;36.40;45.50;;;;;;5031679;28;20216;-76
2022/06/06 09:13:37;;;;;;;5.50;3.78;;;35.80;45.80;;;;;;5019624;28;20275;-75
2022/06/06 09:17:07;;;;;;;5.63;3.30;;;35.70;46.30;;;;;;5051480;28;21190;-76
2022/06/06 09:20:23;;;;;;;4.50;3.60;;;36.00;45.50;;;;;;5041556;28;20231;-76
2022/06/06 09:23:56;;;;;;;3.97;3.67;;;34.90;46.70;;;;;;5049286;28;20794;-76
2022/06/06 09:27:06;;;;;;;3.85;3.42;;;35.00;45.90;;;;;;5000148;28;20239;-76
2022/06/06 09:30:08;;;;;;;5.28;3.70;;;34.40;48.60;;;;;;5030675;28;20225;-75
2022/06/06 09:33:28;;;;;;;4.22;3.92;;;34.30;47.40;;;;;;5036548;28;20219;-76
2022/06/06 09:36:31;;;;;;;4.97;3.80;;;34.60;47.00;;;;;;5036390;28;20228;-75
2022/06/06 09:39:35;;;;;;;3.95;3.55;;;33.60;47.70;;;;;;5027896;28;20438;-75
2022/06/06 09:43:14;;;;;;;4.18;3.88;;;33.30;48.90;;;;;;5028490;28;20317;-76
2022/06/06 09:46:34;;;;;;;4.22;3.80;;;32.70;49.40;;;;;;5024026;28;20228;-75
2022/06/06 09:49:57;;;;;;;4.97;4.07;;;32.50;50.50;;;;;;5023779;28;21143;-77
2022/06/06 09:53:19;;;;;;;4.20;3.80;;;33.40;49.90;;;;;;5040778;28;20232;-75
2022/06/06 10:00:11;;;;;;;6.03;3.67;;;33.80;50.60;;;;;;5038022;28;20243;-77
2022/06/06 10:03:35;;;;;;;6.20;3.95;;;34.20;49.00;;;;;;5039714;28;20311;-77
2022/06/06 10:07:04;;;;;;;4.22;3.85;;;33.20;48.30;;;;;;5036158;28;20221;-76
2022/06/06 10:10:20;;;;;;;4.63;3.58;;;33.40;48.60;;;;;;5006315;28;20311;-75
2022/06/06 10:13:21;;;;;;;4.05;3.75;;;33.00;49.30;;;;;;5017888;28;20228;-76
2022/06/06 10:16:35;;;;;;;4.18;3.63;;;32.10;49.30;;;;;;5029237;28;20247;-76
2022/06/06 10:19:53;;;;;;;4.13;3.42;;;32.60;49.30;;;;;;5021627;28;20217;-76
2022/06/06 10:23:06;;;;;;;4.13;3.10;;;32.60;48.80;;;;;;5012113;28;20236;-76
2022/06/06 10:26:32;;;;;;;5.00;3.65;;;33.10;46.80;;;;;;5032272;28;20643;-76
2022/06/06 10:33:20;;;;;;;4.03;3.65;;;33.40;48.10;;;;;;5035681;28;20228;-76
2022/06/06 10:36:26;;;;;;;4.70;3.40;;;33.10;46.30;;;;;;5034290;28;20213;-76
2022/06/06 10:39:37;;;;;;;3.38;3.08;;;33.50;45.70;;;;;;5012856;28;20225;-76
2022/06/06 10:42:44;;;;;;;4.15;3.40;;;33.80;46.40;;;;;;5021389;28;20781;-76
2022/06/06 10:45:37;;;;;;;7.15;3.55;;;35.60;44.30;;;;;;5023495;28;20247;-75
2022/06/06 10:48:54;;;;;;;4.63;3.60;;;36.70;44.20;;;;;;5021039;28;20221;-76
2022/06/06 10:52:04;;;;;;;4.35;3.95;;;38.50;43.20;;;;;;5037067;28;20232;-77
2022/06/06 10:55:24;;;;;;;4.90;3.47;;;38.90;42.40;;;;;;5055551;28;20222;-76
2022/06/06 10:58:47;;;;;;;4.18;3.78;;;38.60;43.50;;;;;;5056251;28;20219;-77
2022/06/06 11:02:20;;;;;;;4.65;4.35;;;39.50;42.90;;;;;;5050407;28;20220;-76
2022/06/06 11:05:50;;;;;;;4.88;4.00;;;37.90;43.70;;;;;;5053694;28;20223;-76
2022/06/06 11:09:07;;;;;;;4.70;4.28;;;38.80;44.50;;;;;;5051286;28;20219;-76
2022/06/06 11:12:29;;;;;;;4.60;4.10;;;39.40;43.40;;;;;;5041618;28;20227;-76
2022/06/06 11:15:18;;;;;;;5.97;3.75;;;40.00;42.90;;;;;;5052567;28;20650;-76
2022/06/06 11:18:54;;;;;;;4.63;4.05;;;40.40;42.00;;;;;;5041945;28;20598;-75
2022/06/06 11:22:09;;;;;;;4.50;3.95;;;39.40;43.60;;;;;;5025091;28;20274;-75
2022/06/06 11:25:10;;;;;;;4.35;4.05;;;40.40;43.00;;;;;;5058442;28;20240;-74
2022/06/06 11:28:27;;;;;;;4.15;3.85;;;38.50;43.00;;;;;;5052044;28;20292;-75
2022/06/06 11:31:30;;;;;;;4.63;4.00;;;38.00;46.10;;;;;;5050262;28;20227;-75
2022/06/06 11:35:04;;;;;;;7.78;4.35;;;39.70;44.20;;;;;;5053787;28;20230;-75
2022/06/06 11:38:29;;;;;;;4.88;4.00;;;40.60;43.60;;;;;;5038801;28;20219;-76
2022/06/06 11:41:37;;;;;;;4.40;3.88;;;41.40;41.70;;;;;;5054521;28;20704;-76
2022/06/06 11:44:54;;;;;;;4.38;4.07;;;40.20;43.10;;;;;;5037913;28;20697;-76
2022/06/06 11:47:53;;;;;;;7.00;4.30;;;39.30;42.60;;;;;;5054348;28;20219;-76
2022/06/06 11:51:14;;;;;;;4.28;3.88;;;36.40;44.60;;;;;;5056771;28;20215;-76
2022/06/06 11:54:38;;;;;;;4.43;3.78;;;34.60;49.00;;;;;;5054171;28;20215;-75
2022/06/06 11:57:43;;;;;;;4.63;4.20;;;37.60;44.90;;;;;;5036051;28;20216;-75
2022/06/06 12:00:45;;;;;;;4.47;4.00;;;38.20;44.80;;;;;;5054205;28;20234;-76
2022/06/06 14:30:09;;;;;;;6.70;4.35;;;29.00;51.50;;;;;;5057408;27;20548;-75
2022/06/06 14:32:59;;;;;;;5.22;3.58;;;28.80;53.00;;;;;;5069992;28;20227;-76
2022/06/06 14:35:48;;;;;;;3.80;3.50;;;28.60;53.00;;;;;;5070624;28;20227;-75
2022/06/06 14:38:38;;;;;;;5.53;3.60;;;28.60;53.00;;;;;;5072208;28;20219;-77
2022/06/06 14:41:32;;;;;;;5.57;3.45;;;28.60;53.90;;;;;;5084432;28;20219;-77
2022/06/06 14:44:31;;;;;;;6.97;3.90;;;28.50;56.30;;;;;;5071987;28;20219;-76
2022/06/06 14:47:24;;;;;;;4.20;3.80;;;28.30;57.60;;;;;;5069142;28;20353;-77
2022/06/06 14:53:27;;;;;;;4.18;3.80;;;28.40;57.50;;;;;;5063085;28;21207;-77
2022/06/06 14:56:34;;;;;;;5.97;3.90;;;28.20;58.30;;;;;;5070477;28;20553;-76
2022/06/06 14:59:34;;;;;;;5.95;4.00;;;28.30;57.30;;;;;;5069854;28;20212;-76
2022/06/06 15:02:27;;;;;;;4.53;3.75;;;28.20;56.30;;;;;;5070289;28;20230;-77
2022/06/06 15:05:18;;;;;;;4.05;3.65;;;28.30;57.10;;;;;;5069839;28;20484;-76
2022/06/06 15:08:16;;;;;;;4.15;3.75;;;28.10;57.30;;;;;;5070292;28;20226;-75
2022/06/06 15:11:12;;;;;;;4.00;3.60;;;27.90;56.60;;;;;;5072031;28;20590;-76
2022/06/06 15:14:05;;;;;;;6.43;5.22;;;27.90;56.70;;;;;;5072396;28;20311;-77
2022/06/06 15:16:54;;;;;;;6.13;4.30;;;27.80;57.80;;;;;;5070805;28;20234;-76
2022/06/06 15:19:48;;;;;;;5.68;4.15;;;27.80;59.30;;;;;;5061948;28;20223;-76
2022/06/06 15:22:41;;;;;;;5.38;4.00;;;27.80;59.40;;;;;;5063509;28;20223;-76
2022/06/06 15:25:36;;;;;;;4.35;3.95;;;27.70;59.70;;;;;;5067841;28;20228;-78
2022/06/06 15:28:36;;;;;;;8.70;4.53;;;27.50;61.00;;;;;;5068973;28;20709;-78
2022/06/06 15:31:43;;;;;;;4.70;4.30;;;27.50;59.80;;;;;;5083584;28;20227;-77
2022/06/06 15:34:44;;;;;;;5.60;4.10;;;27.60;59.20;;;;;;5069404;28;20211;-79
2022/06/06 15:37:45;;;;;;;4.82;4.10;;;27.50;59.70;;;;;;5068596;28;20280;-79
2022/06/06 15:40:40;;;;;;;5.05;4.32;;;27.60;58.10;;;;;;5059948;28;20212;-79
2022/06/06 15:43:41;;;;;;;4.70;4.22;;;27.70;59.40;;;;;;5054856;28;20221;-78
2022/06/06 15:46:48;;;;;;;5.57;4.85;;;27.50;59.90;;;;;;5059159;28;20216;-78
2022/06/06 15:50:02;;;;;;;6.30;3.95;;;27.50;60.30;;;;;;5058151;28;20239;-77
2022/06/06 15:53:29;;;;;;;4.82;4.18;;;27.50;61.00;;;;;;5054521;28;20293;-78
2022/06/06 15:56:30;;;;;;;5.15;3.63;;;27.40;60.70;;;;;;5036486;28;20220;-78
2022/06/06 16:00:01;;;;;;;5.57;4.60;;;27.30;61.00;;;;;;5042603;28;20216;-78
2022/06/06 16:03:07;;;;;;;5.57;3.90;;;27.30;61.10;;;;;;5057316;28;20243;-79
2022/06/06 16:05:58;;;;;;;5.15;4.35;;;27.30;61.00;;;;;;5044820;28;20699;-80
2022/06/06 16:08:59;;;;;;;6.20;4.43;;;27.10;61.60;;;;;;5045656;28;20232;-78
2022/06/06 16:12:02;;;;;;;7.22;4.95;;;26.90;62.20;;;;;;5053004;28;20224;-78
2022/06/06 16:14:56;;;;;;;5.55;4.30;;;26.80;63.40;;;;;;5044616;28;20217;-77
2022/06/06 16:17:51;;;;;;;5.88;4.03;;;26.60;64.90;;;;;;5039285;28;20243;-77
2022/06/06 16:20:44;;;;;;;5.75;3.95;;;26.50;63.50;;;;;;5053601;28;20266;-77
2022/06/06 16:23:37;;;;;;;6.18;4.03;;;26.70;61.70;;;;;;5056008;28;20213;-77
2022/06/06 16:26:31;;;;;;;5.38;4.25;;;26.80;60.60;;;;;;5056647;28;20231;-77
2022/06/06 16:29:25;;;;;;;4.43;4.00;;;26.90;59.70;;;;;;5052699;28;20270;-78
2022/06/06 16:32:28;;;;;;;6.15;3.97;;;27.00;60.60;;;;;;5053642;28;20590;-78
2022/06/06 16:35:34;;;;;;;9.88;4.10;;;27.00;61.10;;;;;;5053711;28;20227;-77
2022/06/06 16:38:25;;;;;;;6.82;4.28;;;26.90;60.10;;;;;;5042456;28;20234;-77
2022/06/06 16:48:20;;;;;;;4.90;4.20;;;26.70;60.60;;;;;;5041075;28;20227;-78
2022/06/06 16:51:36;;;;;;;7.30;4.18;;;26.60;61.70;;;;;;5042217;28;20216;-77
2022/06/06 16:54:35;;;;;;;4.85;4.45;;;26.60;63.40;;;;;;5054946;28;20216;-78
2022/06/06 16:57:35;;;;;;;5.05;4.47;;;26.50;62.30;;;;;;5061057;28;20611;-76
2022/06/06 17:00:31;;;;;;;4.75;4.22;;;26.40;63.80;;;;;;5055058;28;20224;-76
2022/06/06 17:03:26;;;;;;;5.00;4.60;;;26.50;63.10;;;;;;5055604;28;20287;-77
2022/06/06 17:09:36;;;;;;;6.22;5.63;;;26.50;63.50;;;;;;5054301;28;20231;-77
2022/06/06 17:12:30;;;;;;;6.70;5.45;;;26.40;64.40;;;;;;5052367;28;20232;-78
2022/06/06 17:15:28;;;;;;;6.32;5.00;;;26.40;63.90;;;;;;5057788;28;20216;-77
2022/06/06 17:18:27;;;;;;;4.90;4.32;;;26.40;64.10;;;;;;5035577;28;20216;-78
2022/06/06 17:21:35;;;;;;;11.50;4.57;;;26.40;64.60;;;;;;5053911;28;20231;-77
2022/06/06 17:27:24;;;;;;;4.30;3.90;;;26.20;64.10;;;;;;5008747;28;20230;-73
2022/06/06 17:30:22;;;;;;;6.35;4.30;;;26.00;62.80;;;;;;5013317;28;20315;-71
2022/06/06 17:33:22;;;;;;;4.82;4.00;;;26.00;65.00;;;;;;5005587;28;20229;-72
2022/06/06 17:36:26;;;;;;;4.70;4.30;;;26.00;63.90;;;;;;4997221;28;21137;-74
2022/06/06 17:39:25;;;;;;;6.57;4.47;;;25.90;64.60;;;;;;5004863;28;20479;-72
2022/06/06 17:42:31;;;;;;;8.75;4.45;;;25.80;65.10;;;;;;5011710;28;20222;-72
2022/06/06 17:45:35;;;;;;;6.05;4.20;;;25.80;65.10;;;;;;5001710;28;20367;-74
2022/06/06 17:48:40;;;;;;;5.15;4.30;;;25.80;65.20;;;;;;5000305;28;20237;-74
2022/06/06 17:51:44;;;;;;;6.63;4.50;;;25.80;65.90;;;;;;4999652;28;20275;-74
2022/06/06 17:54:46;;;;;;;9.43;4.63;;;25.80;65.50;;;;;;5004297;28;20217;-72
2022/06/06 17:57:44;;;;;;;5.63;4.10;;;25.80;66.10;;;;;;5017859;28;20232;-74
2022/06/06 18:00:54;;;;;;;6.75;4.20;;;25.90;66.50;;;;;;4997691;28;20349;-73
2022/06/06 18:03:52;;;;;;;5.35;4.10;;;25.80;66.10;;;;;;4996105;28;20230;-73
2022/06/06 18:06:58;;;;;;;11.38;4.95;;;25.80;68.30;;;;;;5005529;28;20252;-74
2022/06/06 18:09:57;;;;;;;16.33;4.65;;;25.80;67.00;;;;;;5005087;28;20237;-74
2022/06/06 18:13:09;;;;;;;7.57;4.45;;;25.80;67.10;;;;;;5017962;28;20228;-75
2022/06/06 18:16:04;;;;;;;9.93;4.80;;;25.90;67.70;;;;;;4996600;28;20585;-74
2022/06/06 18:18:56;;;;;;;8.13;4.78;;;25.80;68.00;;;;;;5013967;28;20237;-76
2022/06/06 18:21:46;;;;;;;5.03;4.63;;;25.70;68.90;;;;;;5004283;28;20711;-73
2022/06/06 18:24:41;;;;;;;7.95;4.78;;;25.70;69.60;;;;;;5002227;28;20313;-74
2022/06/06 18:27:35;;;;;;;6.43;4.78;;;25.60;69.80;;;;;;5002684;28;20320;-73
2022/06/06 18:30:29;;;;;;;7.10;6.50;;;25.50;70.30;;;;;;5007990;28;20226;-74
2022/06/06 18:33:24;;;;;;;6.90;4.88;;;25.40;71.30;;;;;;4986626;28;20353;-73
2022/06/06 18:36:16;;;;;;;6.43;4.97;;;25.50;71.60;;;;;;4997296;28;20672;-75
2022/06/06 18:39:05;;;;;;;8.82;7.97;;;25.40;71.60;;;;;;5012475;28;20229;-74
2022/06/06 18:42:01;;;;;;;7.85;5.05;;;25.40;72.40;;;;;;5014318;28;21622;-73
2022/06/06 18:44:54;;;;;;;6.20;5.20;;;25.20;73.10;;;;;;5014809;28;20217;-73
2022/06/06 18:48:00;;;;;;;6.00;5.22;;;25.30;73.50;;;;;;5008665;28;20357;-71
2022/06/06 18:50:58;;;;;;;8.23;5.50;;;25.20;74.20;;;;;;4997984;28;21042;-72
2022/06/06 18:53:54;;;;;;;5.60;5.10;;;25.10;74.60;;;;;;5009102;28;20237;-73
2022/06/06 18:56:51;;;;;;;6.22;5.60;;;25.00;75.30;;;;;;4999655;28;20296;-74
2022/06/06 18:59:44;;;;;;;6.43;5.50;;;25.00;76.60;;;;;;5008425;28;20230;-73
2022/06/06 19:02:41;;;;;;;8.40;5.70;;;24.90;76.80;;;;;;4998772;28;20276;-74
2022/06/06 19:05:33;;;;;;;8.52;5.70;;;24.90;77.20;;;;;;5004307;28;20222;-74
2022/06/06 19:08:24;;;;;;;9.93;5.80;;;24.70;77.80;;;;;;5001817;28;20827;-73
2022/06/06 19:11:19;;;;;;;13.52;6.25;;;24.70;78.60;;;;;;5000814;28;20233;-75
2022/06/06 19:14:16;;;;;;;6.50;5.80;;;24.60;79.40;;;;;;4988321;28;20222;-74
2022/06/06 19:17:05;;;;;;;8.52;5.93;;;24.50;80.50;;;;;;5016188;28;20880;-73
2022/06/06 19:19:57;;;;;;;9.88;6.70;;;24.40;81.40;;;;;;5016032;28;20301;-75
2022/06/06 19:22:55;;;;;;;9.68;6.43;;;24.40;82.30;;;;;;5008117;28;20233;-74
2022/06/06 19:25:58;;;;;;;9.68;6.13;;;24.30;83.20;;;;;;5010567;28;20259;-73
2022/06/06 19:28:51;;;;;;;10.10;6.10;;;24.30;84.00;;;;;;5019972;28;20236;-73
2022/06/06 19:31:42;;;;;;;10.18;6.53;;;24.20;84.90;;;;;;5017822;28;20263;-73
2022/06/06 19:34:33;;;;;;;9.95;6.40;;;24.20;85.70;;;;;;4990748;28;20222;-74
2022/06/06 19:37:23;;;;;;;9.32;6.47;;;24.20;86.10;;;;;;5011417;28;20233;-74
2022/06/06 19:40:28;;;;;;;7.57;6.60;;;24.10;86.90;;;;;;5012287;28;20363;-73
2022/06/06 19:43:19;;;;;;;7.45;6.70;;;24.10;88.10;;;;;;5011842;28;20328;-73
2022/06/06 19:46:13;;;;;;;9.70;6.70;;;24.00;89.10;;;;;;5016440;28;20213;-72
2022/06/06 19:49:06;;;;;;;35.80;7.60;;;24.00;89.80;;;;;;5005804;28;20221;-75
2022/06/06 19:51:56;;;;;;;8.00;6.35;;;24.00;90.50;;;;;;5018744;28;20226;-73
2022/06/06 19:54:47;;;;;;;7.97;6.80;;;23.80;90.90;;;;;;5008872;28;20686;-75
2022/06/06 19:57:38;;;;;;;51.25;46.10;;;23.80;91.40;;;;;;5007312;28;20252;-74
2022/06/06 20:00:33;;;;;;;11.93;7.53;;;23.80;92.10;;;;;;5018090;28;20225;-74